Decoded Metar for CYAT ( in ) (IATA:) | Meteo·Mobile Aviation Weather
aviador You're here:

CYAT Decoded Metar

in
Report Time2019-02-16 07:00:00
UTC Time2019-02-16 07:27:51
Flight Rules vfr VFR
Wind290° at 07 kt
W.Decomp.*RWY 24: 4.5 kt HW 5.4 kt RCW
W.Rank290° ranks 5
Current wind is below 290° avg. (8.5)
Visibility9999 m
Phenomena:N/A
Clouds:Scattered 016 Hf
Expected CloudBase > 800 ft AGL from Temp-Dew spread
CeilingNone
Temp-18°C
Dew Point-20°C (84% RH)
AAT-24.1°C
QNH1012 hPa
Raw Report
METAR CYAT 160700Z AUTO 29007KT 9SM SCT016 M18/M20 A2989 RMK SLP123=

Extra information for CYAT:More info

Social comments